createdAt,value
2018-12-14T00:02:11.978Z,26.00
2018-12-14T00:04:40.512Z,22.97
2018-12-14T00:07:09.003Z,27.03
2018-12-14T00:09:37.605Z,22.50
2018-12-14T00:12:06.090Z,26.13
2018-12-14T00:14:34.589Z,24.37
2018-12-14T00:17:03.051Z,22.03
2018-12-14T00:19:31.602Z,23.33
2018-12-14T00:22:00.074Z,29.43
2018-12-14T00:24:28.571Z,22.93
2018-12-14T00:26:57.454Z,22.43
2018-12-14T00:29:26.042Z,22.13
2018-12-14T00:31:54.534Z,25.47
2018-12-14T00:34:22.979Z,24.20
2018-12-14T00:36:51.458Z,25.00
2018-12-14T00:39:19.975Z,24.13
2018-12-14T00:41:51.908Z,24.70
2018-12-14T00:44:18.983Z,22.93
2018-12-14T00:46:47.443Z,23.57
2018-12-14T00:49:16.659Z,23.13
2018-12-14T00:51:45.766Z,25.17
2018-12-14T00:54:14.262Z,21.43
2018-12-14T00:56:42.748Z,23.27
2018-12-14T00:59:17.888Z,22.47
2018-12-14T01:01:46.462Z,23.47
2018-12-14T01:04:15.869Z,26.70
2018-12-14T01:06:44.350Z,19.53
2018-12-14T01:09:12.936Z,22.83
2018-12-14T01:11:41.626Z,22.43
2018-12-14T01:14:10.237Z,21.83
2018-12-14T01:16:38.842Z,20.57
2018-12-14T01:19:08.178Z,27.83
2018-12-14T01:21:36.654Z,22.17
2018-12-14T01:24:05.495Z,24.17
2018-12-14T01:26:34.274Z,25.93
2018-12-14T01:29:02.743Z,23.87
2018-12-14T01:31:31.592Z,21.77
2018-12-14T01:34:00.475Z,23.13
2018-12-14T01:36:29.590Z,22.83
2018-12-14T01:38:58.378Z,28.30
2018-12-14T01:41:27.049Z,22.30
2018-12-14T01:43:55.973Z,22.90
2018-12-14T01:46:24.529Z,24.83
2018-12-14T01:48:53.147Z,24.17
2018-12-14T01:51:22.150Z,26.20
2018-12-14T01:53:50.722Z,23.83
2018-12-14T01:56:20.374Z,22.90
2018-12-14T01:58:49.298Z,25.10
2018-12-14T02:01:18.490Z,24.17
2018-12-14T02:03:48.062Z,21.40
2018-12-14T02:06:17.466Z,21.93
2018-12-14T02:08:46.368Z,23.83
2018-12-14T02:11:15.171Z,24.20
2018-12-14T02:13:44.548Z,18.87
2018-12-14T02:16:13.802Z,18.30
2018-12-14T02:18:42.744Z,22.57
2018-12-14T02:21:11.243Z,19.10
2018-12-14T02:23:40.226Z,18.67
2018-12-14T02:26:09.200Z,19.07
2018-12-14T02:28:38.539Z,17.43
2018-12-14T02:31:07.428Z,23.17
2018-12-14T02:33:36.514Z,18.23
2018-12-14T02:36:05.493Z,17.60
2018-12-14T02:38:34.858Z,15.03
2018-12-14T02:41:04.741Z,19.00
2018-12-14T02:43:33.906Z,14.50
2018-12-14T02:46:03.188Z,19.87
2018-12-14T02:48:31.915Z,15.73
2018-12-14T02:51:00.633Z,15.83
2018-12-14T02:53:29.390Z,14.73
2018-12-14T02:55:58.020Z,13.17
2018-12-14T02:58:26.935Z,14.33
2018-12-14T03:00:55.925Z,12.77
2018-12-14T03:03:24.938Z,12.73
2018-12-14T03:05:53.606Z,13.33
2018-12-14T03:08:23.094Z,10.40
2018-12-14T03:10:51.627Z,11.40
2018-12-14T03:13:20.090Z,14.50
2018-12-14T03:15:48.549Z,13.37
2018-12-14T03:18:17.498Z,14.17
2018-12-14T03:20:46.096Z,13.40
2018-12-14T03:23:14.978Z,15.77
2018-12-14T03:25:43.844Z,14.03
2018-12-14T03:28:12.547Z,14.53
2018-12-14T03:30:41.522Z,11.93
2018-12-14T03:33:11.039Z,13.80
2018-12-14T03:35:39.843Z,13.70
2018-12-14T03:38:08.748Z,10.83
2018-12-14T03:40:37.743Z,14.57
2018-12-14T03:43:06.528Z,14.50
2018-12-14T03:45:36.152Z,14.13
2018-12-14T03:48:11.432Z,13.13
2018-12-14T03:50:41.030Z,15.13
2018-12-14T03:53:10.309Z,14.50
2018-12-14T03:55:39.254Z,12.87
2018-12-14T03:58:08.703Z,9.47
2018-12-14T04:00:37.715Z,9.33
2018-12-14T04:03:06.647Z,7.70
2018-12-14T04:05:36.209Z,13.10
2018-12-14T04:08:05.106Z,13.33
2018-12-14T04:10:33.834Z,9.63
2018-12-14T04:13:02.934Z,9.50
2018-12-14T04:15:32.670Z,7.90
2018-12-14T04:18:01.455Z,13.00
2018-12-14T04:20:30.401Z,9.73
2018-12-14T04:22:59.410Z,11.07
2018-12-14T04:25:28.121Z,9.60
2018-12-14T04:27:56.863Z,8.70
2018-12-14T04:30:25.735Z,10.13
2018-12-14T04:32:54.490Z,7.33
2018-12-14T04:35:23.375Z,10.50
2018-12-14T04:37:52.089Z,9.57
2018-12-14T04:40:20.942Z,10.97
2018-12-14T04:42:50.348Z,8.90
2018-12-14T04:45:18.991Z,9.50
2018-12-14T04:47:47.685Z,8.87
2018-12-14T04:50:17.132Z,7.03
2018-12-14T04:52:45.944Z,10.27
2018-12-14T04:55:14.607Z,8.43
2018-12-14T04:57:43.287Z,11.60
2018-12-14T05:00:11.849Z,9.80
2018-12-14T05:02:41.258Z,10.67
2018-12-14T05:05:10.967Z,8.87
2018-12-14T05:07:40.150Z,8.53
2018-12-14T05:10:09.052Z,8.70
2018-12-14T05:12:37.734Z,10.17
2018-12-14T05:15:07.401Z,9.33
2018-12-14T05:17:36.100Z,10.03
2018-12-14T05:20:05.104Z,11.77
2018-12-14T05:22:33.727Z,10.37
2018-12-14T05:25:02.480Z,11.67
2018-12-14T05:27:31.059Z,8.80
2018-12-14T05:29:59.869Z,10.47
2018-12-14T05:32:28.451Z,10.47
2018-12-14T05:34:57.142Z,12.50
2018-12-14T05:37:25.746Z,10.40
2018-12-14T05:39:54.274Z,11.77
2018-12-14T05:42:22.837Z,11.47
2018-12-14T05:44:51.625Z,12.37
2018-12-14T05:47:20.222Z,9.63
2018-12-14T05:49:48.926Z,10.93
2018-12-14T05:52:17.467Z,11.20
2018-12-14T05:54:46.110Z,13.07
2018-12-14T05:57:14.832Z,9.53
2018-12-14T05:59:43.325Z,11.07
2018-12-14T06:02:12.038Z,13.77
2018-12-14T06:04:40.687Z,11.57
2018-12-14T06:07:09.247Z,14.43
2018-12-14T06:09:37.949Z,11.33
2018-12-14T06:12:06.911Z,12.47
2018-12-14T06:14:35.600Z,10.47
2018-12-14T06:17:04.209Z,17.87
2018-12-14T06:19:32.872Z,11.00
2018-12-14T06:22:01.336Z,13.30
2018-12-14T06:24:29.827Z,14.50
2018-12-14T06:26:58.327Z,13.87
2018-12-14T06:29:26.853Z,15.60
2018-12-14T06:31:55.345Z,22.00
2018-12-14T06:34:23.821Z,19.03
2018-12-14T06:36:54.649Z,17.43
2018-12-14T06:39:23.865Z,17.47
2018-12-14T06:41:52.944Z,14.93
2018-12-14T06:44:22.234Z,17.80
2018-12-14T06:46:51.649Z,20.27
2018-12-14T06:49:20.659Z,17.77
2018-12-14T06:51:49.472Z,19.03
2018-12-14T06:54:18.411Z,18.07
2018-12-14T06:56:47.216Z,25.17
2018-12-14T06:59:16.157Z,21.47
2018-12-14T07:01:45.204Z,21.87
2018-12-14T07:04:13.879Z,20.47
2018-12-14T07:06:42.946Z,21.13
2018-12-14T07:09:11.722Z,19.17
2018-12-14T07:11:40.327Z,19.43
2018-12-14T07:14:08.859Z,21.93
2018-12-14T07:16:37.495Z,20.27
2018-12-14T07:19:07.447Z,23.67
2018-12-14T07:21:36.283Z,20.33
2018-12-14T07:24:05.841Z,20.27
2018-12-14T07:26:35.867Z,23.57
2018-12-14T07:29:05.071Z,26.50
2018-12-14T07:31:34.133Z,19.73
2018-12-14T07:34:02.693Z,22.23
2018-12-14T07:36:31.676Z,22.77
2018-12-14T07:39:00.195Z,23.27
2018-12-14T07:41:28.963Z,24.43
2018-12-14T07:43:58.145Z,21.93
2018-12-14T07:46:27.076Z,24.73
2018-12-14T07:48:56.198Z,22.63
2018-12-14T07:51:25.133Z,22.47
2018-12-14T07:53:54.184Z,24.67
2018-12-14T07:56:22.842Z,22.37
2018-12-14T07:58:52.566Z,24.80
2018-12-14T08:01:21.151Z,26.40
2018-12-14T08:03:50.074Z,20.00
2018-12-14T08:06:18.839Z,21.57
2018-12-14T08:08:48.322Z,23.57
2018-12-14T08:11:17.149Z,23.30
2018-12-14T08:13:45.910Z,22.27
2018-12-14T08:16:14.765Z,22.60
2018-12-14T08:18:44.123Z,25.60
2018-12-14T08:21:13.199Z,24.70
2018-12-14T08:23:41.975Z,23.17
2018-12-14T08:26:10.739Z,23.40
2018-12-14T08:28:40.500Z,25.60
2018-12-14T08:31:09.794Z,23.47
2018-12-14T08:33:39.300Z,25.87
2018-12-14T08:36:09.508Z,25.63
2018-12-14T08:38:38.598Z,25.83
2018-12-14T08:41:08.965Z,23.33
2018-12-14T08:43:41.378Z,26.47
2018-12-14T08:46:09.165Z,25.33
2018-12-14T08:48:38.291Z,28.33
2018-12-14T08:51:07.329Z,29.03
2018-12-14T08:53:36.808Z,22.43
2018-12-14T08:56:05.849Z,22.73
2018-12-14T08:58:34.877Z,23.40
2018-12-14T09:01:04.097Z,25.37
2018-12-14T09:03:33.657Z,25.93
2018-12-14T09:06:02.615Z,28.50
2018-12-14T09:08:31.510Z,27.67
2018-12-14T09:11:00.150Z,26.77
2018-12-14T09:13:29.289Z,28.87
2018-12-14T09:15:57.954Z,27.83
2018-12-14T09:18:26.976Z,23.43
2018-12-14T09:21:01.031Z,24.77
2018-12-14T09:23:26.727Z,26.67
2018-12-14T09:25:56.965Z,23.50
2018-12-14T09:28:26.113Z,22.83
2018-12-14T09:30:55.831Z,24.40
2018-12-14T09:33:24.873Z,24.33
2018-12-14T09:35:54.338Z,26.87
2018-12-14T09:38:23.537Z,26.83
2018-12-14T09:40:52.794Z,20.70
2018-12-14T09:43:21.919Z,26.10
2018-12-14T09:45:50.987Z,24.57
2018-12-14T09:48:20.283Z,24.13
2018-12-14T09:50:50.028Z,29.90
2018-12-14T09:53:18.926Z,23.43
2018-12-14T09:55:54.760Z,22.60
2018-12-14T09:58:24.067Z,25.03
2018-12-14T10:00:53.259Z,23.03
2018-12-14T10:03:21.845Z,25.00
2018-12-14T10:05:50.817Z,23.73
2018-12-14T10:08:19.556Z,24.40
2018-12-14T10:10:48.510Z,22.60
2018-12-14T10:13:17.398Z,26.13
2018-12-14T10:15:46.079Z,28.13
2018-12-14T10:18:15.407Z,22.80
2018-12-14T10:20:44.214Z,23.00
2018-12-14T10:23:13.238Z,23.67
2018-12-14T10:25:42.246Z,23.93
2018-12-14T10:28:11.079Z,26.53
2018-12-14T10:30:40.592Z,26.47
2018-12-14T10:33:09.233Z,27.73
2018-12-14T10:35:37.792Z,25.10
2018-12-14T10:38:06.387Z,24.77
2018-12-14T10:40:35.184Z,24.90
2018-12-14T10:43:03.915Z,22.17
2018-12-14T10:45:32.598Z,21.97
2018-12-14T10:48:01.779Z,24.20
2018-12-14T10:50:38.556Z,23.03
2018-12-14T10:53:04.732Z,22.53
2018-12-14T10:55:33.525Z,22.07
2018-12-14T10:58:02.361Z,20.80
2018-12-14T11:00:36.411Z,23.07
2018-12-14T11:03:05.051Z,22.33
2018-12-14T11:05:33.597Z,21.37
2018-12-14T11:08:02.230Z,21.53
2018-12-14T11:10:30.867Z,20.63
2018-12-14T11:12:59.361Z,17.87
2018-12-14T11:15:27.935Z,19.90
2018-12-14T11:17:56.464Z,19.43
2018-12-14T11:20:25.002Z,16.57
2018-12-14T11:22:53.721Z,18.93
2018-12-14T11:25:22.291Z,17.03
2018-12-14T11:27:50.850Z,17.20
2018-12-14T11:30:19.524Z,17.47
2018-12-14T11:32:48.018Z,17.53
2018-12-14T11:35:16.576Z,17.33
2018-12-14T11:37:45.363Z,20.67
2018-12-14T11:40:14.359Z,17.57
2018-12-14T11:42:42.925Z,15.77
2018-12-14T11:45:11.632Z,19.53
2018-12-14T11:47:40.195Z,17.33
2018-12-14T11:50:10.729Z,18.37
2018-12-14T11:52:39.275Z,20.57
2018-12-14T11:55:09.986Z,19.63
2018-12-14T11:57:39.066Z,18.10
2018-12-14T12:00:12.335Z,18.73
2018-12-14T12:02:43.173Z,19.43
2018-12-14T12:05:11.428Z,21.67
2018-12-14T12:07:41.328Z,17.63
2018-12-14T12:10:10.842Z,17.80
2018-12-14T12:12:39.902Z,18.63
2018-12-14T12:15:09.612Z,18.47
2018-12-14T12:17:39.269Z,17.97
2018-12-14T12:20:08.620Z,18.27
2018-12-14T12:22:37.173Z,23.50
2018-12-14T12:25:06.456Z,23.27
2018-12-14T12:27:35.361Z,19.77
2018-12-14T12:30:04.419Z,21.10
2018-12-14T12:32:32.953Z,20.63
2018-12-14T12:35:01.572Z,17.30
2018-12-14T12:37:30.094Z,18.00
2018-12-14T12:39:58.627Z,17.50
2018-12-14T12:42:27.722Z,20.50
2018-12-14T12:44:56.295Z,17.87
2018-12-14T12:47:24.910Z,15.93
2018-12-14T12:49:53.443Z,14.90
2018-12-14T12:52:21.976Z,16.43
2018-12-14T12:54:50.600Z,18.73
2018-12-14T12:57:20.107Z,17.17
2018-12-14T12:59:48.647Z,17.03
2018-12-14T13:02:17.221Z,16.40
2018-12-14T13:04:46.431Z,16.90
2018-12-14T13:07:14.979Z,13.73
2018-12-14T13:09:44.266Z,17.70
2018-12-14T13:12:12.798Z,20.70
2018-12-14T13:14:41.357Z,17.70
2018-12-14T13:17:09.870Z,14.67
2018-12-14T13:19:38.408Z,15.03
2018-12-14T13:22:07.014Z,18.10
2018-12-14T13:24:35.505Z,19.60
2018-12-14T13:27:04.066Z,19.67
2018-12-14T13:29:32.712Z,16.27
2018-12-14T13:32:01.813Z,18.33
2018-12-14T13:34:30.435Z,18.47
2018-12-14T13:36:58.919Z,26.40
2018-12-14T13:39:27.494Z,33.60
2018-12-14T13:41:56.037Z,22.37
2018-12-14T13:44:24.557Z,20.40
2018-12-14T13:46:53.161Z,14.30
2018-12-14T13:49:21.688Z,18.70
2018-12-14T13:51:50.319Z,21.83
2018-12-14T13:54:18.895Z,18.83
2018-12-14T13:56:47.447Z,15.70
2018-12-14T13:59:16.020Z,16.43
2018-12-14T14:01:44.483Z,16.63
2018-12-14T14:04:13.041Z,21.37
2018-12-14T14:06:41.733Z,20.93
2018-12-14T14:09:10.270Z,20.77
2018-12-14T14:11:38.764Z,25.23
2018-12-14T14:14:07.310Z,23.03
2018-12-14T14:16:35.846Z,15.27
2018-12-14T14:19:04.378Z,17.43
2018-12-14T14:21:32.952Z,19.13
2018-12-14T14:24:01.420Z,16.57
2018-12-14T14:26:30.517Z,13.23
2018-12-14T14:28:59.125Z,15.63
2018-12-14T14:31:27.577Z,13.63
2018-12-14T14:33:56.489Z,15.87
2018-12-14T14:36:25.106Z,15.80
2018-12-14T14:38:54.353Z,16.83
2018-12-14T14:41:22.900Z,19.60
2018-12-14T14:43:51.492Z,14.27
2018-12-14T14:46:20.116Z,13.80
2018-12-14T14:48:48.637Z,17.80
2018-12-14T14:51:17.876Z,13.07
2018-12-14T14:53:46.771Z,12.70
2018-12-14T14:56:15.341Z,14.20
2018-12-14T14:58:43.978Z,13.77
2018-12-14T15:01:13.184Z,15.67
2018-12-14T15:03:42.246Z,12.30
2018-12-14T15:06:11.117Z,13.27
2018-12-14T15:08:40.178Z,18.20
2018-12-14T15:11:09.017Z,15.53
2018-12-14T15:13:37.547Z,14.13
2018-12-14T15:16:06.195Z,15.97
2018-12-14T15:18:34.763Z,19.60
2018-12-14T15:21:03.246Z,14.10
2018-12-14T15:23:31.737Z,13.50
2018-12-14T15:26:00.248Z,13.13
2018-12-14T15:28:29.557Z,11.40
2018-12-14T15:30:58.037Z,15.30
2018-12-14T15:33:26.539Z,13.60
2018-12-14T15:35:55.043Z,12.23
2018-12-14T15:38:23.611Z,14.20
2018-12-14T15:40:52.131Z,11.17
2018-12-14T15:43:20.690Z,13.10
2018-12-14T15:45:49.168Z,17.77
2018-12-14T15:48:17.748Z,13.10
2018-12-14T15:50:46.234Z,13.33
2018-12-14T15:53:14.823Z,16.47
2018-12-14T15:55:43.316Z,16.47
2018-12-14T15:58:11.815Z,18.77
2018-12-14T16:00:40.318Z,15.60
2018-12-14T16:03:08.816Z,16.87
2018-12-14T16:05:37.256Z,16.70
2018-12-14T16:08:05.775Z,14.73
2018-12-14T16:10:34.417Z,15.60
2018-12-14T16:13:02.945Z,18.53
2018-12-14T16:15:31.574Z,16.37
2018-12-14T16:18:00.083Z,14.57
2018-12-14T16:20:28.580Z,15.93
2018-12-14T16:22:57.334Z,18.80
2018-12-14T16:25:26.002Z,17.07
2018-12-14T16:27:54.778Z,14.60
2018-12-14T16:30:23.499Z,18.03
2018-12-14T16:32:52.159Z,16.77
2018-12-14T16:35:20.897Z,14.07
2018-12-14T16:37:49.391Z,17.47
2018-12-14T16:40:18.501Z,17.13
2018-12-14T16:42:47.080Z,15.27
2018-12-14T16:45:15.888Z,13.33
2018-12-14T16:47:44.547Z,15.17
2018-12-14T16:50:13.083Z,15.37
2018-12-14T16:52:41.635Z,17.20
2018-12-14T16:55:10.157Z,15.33
2018-12-14T16:57:38.624Z,13.30
2018-12-14T17:00:09.060Z,15.07
2018-12-14T17:02:37.604Z,14.67
2018-12-14T17:05:07.404Z,15.53
2018-12-14T17:07:36.442Z,15.43
2018-12-14T17:10:06.392Z,14.00
2018-12-14T17:12:35.761Z,15.50
2018-12-14T17:15:05.811Z,16.30
2018-12-14T17:17:35.135Z,15.30
2018-12-14T17:20:04.530Z,14.60
2018-12-14T17:22:34.214Z,14.20
2018-12-14T17:25:03.719Z,15.80
2018-12-14T17:27:32.352Z,17.17
2018-12-14T17:30:00.841Z,15.90
2018-12-14T17:32:29.491Z,18.27
2018-12-14T17:34:57.962Z,17.83
2018-12-14T17:37:26.568Z,19.10
2018-12-14T17:39:55.660Z,13.83
2018-12-14T17:42:24.155Z,14.07
2018-12-14T17:44:52.659Z,16.47
2018-12-14T17:47:21.175Z,18.63
2018-12-14T17:49:50.854Z,14.80
2018-12-14T17:52:19.311Z,14.13
2018-12-14T17:54:48.871Z,13.13
2018-12-14T17:57:17.328Z,15.80
2018-12-14T17:59:45.782Z,16.57
2018-12-14T18:02:14.344Z,16.67
2018-12-14T18:04:43.311Z,15.90
2018-12-14T18:07:11.807Z,17.63
2018-12-14T18:09:40.303Z,15.90
2018-12-14T18:12:08.816Z,14.87
2018-12-14T18:14:38.014Z,15.07
2018-12-14T18:17:06.512Z,15.17
2018-12-14T18:19:35.006Z,13.93
2018-12-14T18:22:03.608Z,16.57
2018-12-14T18:24:32.072Z,15.73
2018-12-14T18:27:01.209Z,17.23
2018-12-14T18:29:29.663Z,17.83
2018-12-14T18:31:58.092Z,16.93
2018-12-14T18:34:26.555Z,15.53
2018-12-14T18:36:55.573Z,15.97
2018-12-14T18:39:24.082Z,14.77
2018-12-14T18:41:52.571Z,13.97
2018-12-14T18:44:21.100Z,14.43
2018-12-14T18:46:49.554Z,14.73
2018-12-14T18:49:18.002Z,15.17
2018-12-14T18:51:46.497Z,11.10
2018-12-14T18:54:15.468Z,15.47
2018-12-14T18:56:44.217Z,15.00
2018-12-14T18:59:12.829Z,15.80
2018-12-14T19:01:43.100Z,16.33
2018-12-14T19:04:12.343Z,14.57
2018-12-14T19:06:40.906Z,15.60
2018-12-14T19:09:09.336Z,15.83
2018-12-14T19:11:38.137Z,15.97
2018-12-14T19:14:06.957Z,16.30
2018-12-14T19:16:35.440Z,16.50
2018-12-14T19:19:03.986Z,14.90
2018-12-14T19:21:33.539Z,14.50
2018-12-14T19:24:02.130Z,14.57
2018-12-14T19:26:30.666Z,13.17
2018-12-14T19:28:59.127Z,13.93
2018-12-14T19:31:27.572Z,14.13
2018-12-14T19:33:56.050Z,16.37
2018-12-14T19:36:24.516Z,16.03
2018-12-14T19:38:52.950Z,13.73
2018-12-14T19:41:21.431Z,15.93
2018-12-14T19:43:49.925Z,15.90
2018-12-14T19:46:18.410Z,16.07
2018-12-14T19:48:46.864Z,16.40
2018-12-14T19:51:15.311Z,14.40
2018-12-14T19:53:43.811Z,15.37
2018-12-14T19:56:12.306Z,12.67
2018-12-14T19:58:40.815Z,14.97
2018-12-14T20:01:09.370Z,12.53
2018-12-14T20:03:38.132Z,14.30
2018-12-14T20:06:06.812Z,12.83
2018-12-14T20:08:35.708Z,13.07
2018-12-14T20:11:04.894Z,11.43
2018-12-14T20:13:33.990Z,13.60
2018-12-14T20:16:02.652Z,14.40
2018-12-14T20:18:31.459Z,11.97
2018-12-14T20:21:00.004Z,13.13
2018-12-14T20:23:28.552Z,13.30
2018-12-14T20:25:57.007Z,11.70
2018-12-14T20:28:26.067Z,14.63
2018-12-14T20:30:55.236Z,12.50
2018-12-14T20:33:23.736Z,11.80
2018-12-14T20:35:52.178Z,9.30
2018-12-14T20:38:20.655Z,13.90
2018-12-14T20:40:49.123Z,10.50
2018-12-14T20:43:18.393Z,11.23
2018-12-14T20:45:46.914Z,10.97
2018-12-14T20:48:16.150Z,10.77
2018-12-14T20:50:44.976Z,11.10
2018-12-14T20:53:13.569Z,8.33
2018-12-14T20:55:43.015Z,10.90
2018-12-14T20:58:11.455Z,12.07
2018-12-14T21:00:39.961Z,10.17
2018-12-14T21:03:08.422Z,12.43
2018-12-14T21:05:36.917Z,13.90
2018-12-14T21:08:05.482Z,12.03
2018-12-14T21:10:34.016Z,12.60
2018-12-14T21:13:02.582Z,10.37
2018-12-14T21:15:31.065Z,10.97
2018-12-14T21:17:59.540Z,11.30
2018-12-14T21:20:28.078Z,12.80
2018-12-14T21:22:57.295Z,14.50
2018-12-14T21:25:26.437Z,11.70
2018-12-14T21:27:54.915Z,12.20
2018-12-14T21:30:23.351Z,13.57
2018-12-14T21:32:51.864Z,10.60
2018-12-14T21:35:20.278Z,13.47
2018-12-14T21:37:48.795Z,12.60
2018-12-14T21:40:17.255Z,12.50
2018-12-14T21:42:45.724Z,12.97
2018-12-14T21:45:14.228Z,9.40
2018-12-14T21:47:42.813Z,12.23
2018-12-14T21:50:11.909Z,12.47
2018-12-14T21:52:40.424Z,11.77
2018-12-14T21:55:09.004Z,12.20
2018-12-14T21:57:37.985Z,12.43
2018-12-14T22:00:09.110Z,13.80
2018-12-14T22:02:37.627Z,10.20
2018-12-14T22:05:06.847Z,11.33
2018-12-14T22:07:35.426Z,12.90
2018-12-14T22:10:04.688Z,9.63
2018-12-14T22:12:33.636Z,11.67
2018-12-14T22:15:02.244Z,11.43
2018-12-14T22:17:30.825Z,11.27
2018-12-14T22:19:59.276Z,9.97
2018-12-14T22:22:28.473Z,11.23
2018-12-14T22:24:56.994Z,11.77
2018-12-14T22:27:25.466Z,10.07
2018-12-14T22:29:53.980Z,11.40
2018-12-14T22:32:23.817Z,11.20
2018-12-14T22:34:52.691Z,10.67
2018-12-14T22:37:21.300Z,8.60
2018-12-14T22:39:50.082Z,11.17
2018-12-14T22:42:18.535Z,10.53
2018-12-14T22:44:47.911Z,9.37
2018-12-14T22:47:16.359Z,7.27
2018-12-14T22:49:44.816Z,11.10
2018-12-14T22:52:13.493Z,9.43
2018-12-14T22:54:42.525Z,9.30
2018-12-14T22:57:10.989Z,8.83
2018-12-14T22:59:39.409Z,10.37
2018-12-14T23:02:07.850Z,11.90
2018-12-14T23:04:36.552Z,7.63
2018-12-14T23:07:05.065Z,14.20
2018-12-14T23:09:33.581Z,8.47
2018-12-14T23:12:02.026Z,10.43
2018-12-14T23:14:30.483Z,9.27
2018-12-14T23:16:58.973Z,9.10
2018-12-14T23:19:27.428Z,10.87
2018-12-14T23:21:55.889Z,7.90
2018-12-14T23:24:24.336Z,9.10
2018-12-14T23:26:52.798Z,8.17
2018-12-14T23:29:22.003Z,9.50
2018-12-14T23:31:50.485Z,10.20
2018-12-14T23:34:18.949Z,9.70
2018-12-14T23:36:47.673Z,9.90
2018-12-14T23:39:16.166Z,11.20
2018-12-14T23:41:44.674Z,9.23
2018-12-14T23:44:13.175Z,9.57
2018-12-14T23:46:41.647Z,11.90
2018-12-14T23:49:10.178Z,9.93
2018-12-14T23:51:39.014Z,10.33
2018-12-14T23:54:07.456Z,11.87
2018-12-14T23:56:35.904Z,12.73
2018-12-14T23:59:04.556Z,8.80
